5CO5 weather

Black Hollow Heliport
Carr, Colorado, United States

Public forecast

Using degrees Fahrenheit for public forecast. Weather courtesy of forecast.io.

METAR (pilot weather report)

Closest report is Northern Colorado Regional Airport, 13.9 nm (25.8 km) SSW. Retrieved 2019/08/18 20:56 UTC (10 minutes ago):

KFNL 182056Z AUTO 19007KT 10SM CLR 26/13 A3001 RMK AO2 SLP103 T02610133 58021

TAF (pilot weather forecast)

Closest forecast is Cheyenne Regional Jerry Olson Field, 29.4 nm (54.4 km) N. Retrieved 2019/08/18 18:57 UTC (2 hours ago):

TAF KCYS 181755Z 1818/1918 20015G25KT P6SM SKC FM182300 29012KT P6SM FEW250 FM190200 25005KT P6SM FEW250 FM191200 28006KT P6SM FEW250